East Canton, Pennsylvania
Current Conditions -  °F | °C
As of 6:15 AM on Saturday 01 Nov 2014 (Local Time) from KN38 Reporting Station
Overcast Overcast  
Wind Chill: 28°   Ceiling: 700
Heat Index: 37°   Visibility: 10mi
Dew Point: 36°   Wind: 16mph
Humidity: 93%   Direction: 10°N
Pressure: 29.9"   Gusts: NA
Location:  41.669°N, 76.8999°W
Report Text: KN38 011015Z AUTO 01014KT 10SM OVC007 03/02 A2990 RMK AO2
Loading
Personal Weather Stations






























Interactive Weather Map
Tropical Storm Tracking
New forecast layout! Learn more

10-Day Weather Forecast

Advertisements
Track Severe Weather on mobile